Weather reports worldwide

Advertisment
Itsaso, Spain (8037): temperature & dewpoint: 10.11.2018 05:00:00 - 16.11.2018 05:00:00 (CET)Itsaso, Spain (8037): wind speed & gusts: 10.11.2018 05:00:00 - 16.11.2018 05:00:00 (CET)Itsaso, Spain (8037): wind direction: 10.11.2018 05:00:00 - 16.11.2018 05:00:00 (CET)Itsaso, Spain (8037): reduced air pressure: 10.11.2018 05:00:00 - 16.11.2018 05:00:00 (CET)Itsaso, Spain (8037): precipitation: 10.11.2018 05:00:00 - 16.11.2018 05:00:00 (CET)
Date & Time tt [°C] td [°C] ff [km/h] ff [kn] fx [km/h] fx [kn] dd ppp [hPa] rr [mm]
16.11.2018 05:00:00 - - - - - - - - -
16.11.2018 04:00:00 11,0 9,6 1 1 7 4 SSE 1018,7 0,0
16.11.2018 03:00:00 10,8 9,6 1 0 4 2 SE 1019,2 0,0
16.11.2018 02:00:00 11,2 9,9 0 0 1 1 WSW 1019,4 0,0
16.11.2018 01:00:00 11,3 9,9 0 0 6 3 W 1019,5 -
16.11.2018 00:00:00 12,3 9,6 0 0 4 2 ESE 1019,3 0,0
15.11.2018 23:00:00 12,4 9,6 0 0 3 1 SSE 1019,5 0,0
15.11.2018 22:00:00 13,0 9,8 0 0 9 5 N 1019,3 0,0
15.11.2018 21:00:00 12,9 9,9 0 0 8 4 NNW 1018,9 0,0
15.11.2018 20:00:00 13,0 10,0 2 1 12 6 SSW 1018,4 0,0
15.11.2018 19:00:00 13,3 9,2 1 1 8 4 ESE 1017,8 -
15.11.2018 18:00:00 14,0 8,8 1 1 13 7 S 1017,2 0,0
15.11.2018 17:00:00 15,2 9,0 4 2 21 11 SE 1016,9 0,0
15.11.2018 16:00:00 15,4 9,3 8 4 23 13 ESE 1016,5 0,0
15.11.2018 15:00:00 16,0 9,2 5 3 26 14 SE 1016,8 0,0
15.11.2018 14:00:00 16,3 9,3 7 4 24 13 SE 1016,8 0,0
15.11.2018 13:00:00 16,6 9,3 10 5 29 16 SE 1017,3 -
15.11.2018 12:00:00 15,9 10,0 8 4 29 16 ESE 1017,8 0,0
15.11.2018 11:00:00 15,1 10,3 8 4 22 12 ESE 1018,0 0,0
15.11.2018 10:00:00 14,1 10,2 8 4 16 9 E 1017,9 0,0
15.11.2018 09:00:00 13,1 9,7 1 0 22 12 ESE 1017,9 0,0
15.11.2018 08:00:00 13,3 9,6 4 2 29 16 SSE 1017,4 0,0
15.11.2018 07:00:00 13,1 9,6 4 2 22 12 SE 1017,1 -
15.11.2018 06:00:00 12,7 9,7 0 0 11 6 SE 1016,9 0,0
15.11.2018 05:00:00 12,6 9,6 3 1 31 17 SE 1017,1 0,0
15.11.2018 04:00:00 12,8 9,7 4 2 17 9 ESE 1017,1 0,0
15.11.2018 03:00:00 12,8 9,3 0 0 11 6 SW 1017,4 0,0
15.11.2018 02:00:00 13,1 9,2 3 1 25 14 E 1017,4 0,0
15.11.2018 01:00:00 13,5 8,8 9 5 31 17 SE 1017,8 -
15.11.2018 00:00:00 13,7 8,9 9 5 32 17 ESE 1018,0 0,0
14.11.2018 23:00:00 13,7 8,9 6 3 26 14 SE 1018,4 0,0
14.11.2018 22:00:00 13,5 8,5 6 4 26 14 SE 1018,7 0,0
14.11.2018 21:00:00 13,3 8,1 4 2 18 10 SE 1018,7 0,0
14.11.2018 20:00:00 13,1 8,1 2 1 15 8 ESE 1018,9 0,0
14.11.2018 19:00:00 13,3 8,5 2 1 16 8 ESE 1019,1 -
14.11.2018 18:00:00 14,1 8,7 2 1 15 8 SSE 1018,8 0,0
14.11.2018 17:00:00 15,1 9,0 3 1 22 12 SE 1018,6 0,0
14.11.2018 16:00:00 16,0 8,9 7 4 22 12 SE 1018,6 0,0
14.11.2018 15:00:00 16,0 9,2 7 4 24 13 SE 1019,0 0,0
14.11.2018 14:00:00 15,8 9,4 9 5 31 17 SE 1019,3 0,0
14.11.2018 13:00:00 16,3 9,3 9 5 34 18 SE 1019,8 -
14.11.2018 12:00:00 15,8 9,0 10 5 30 16 ESE 1020,7 0,0
14.11.2018 11:00:00 15,4 9,6 11 6 27 15 ESE 1021,3 0,0
14.11.2018 10:00:00 14,2 10,0 5 3 20 11 ESE 1021,8 0,0
14.11.2018 09:00:00 11,7 9,8 1 0 15 8 E 1022,5 0,0
14.11.2018 08:00:00 10,9 9,4 1 1 16 9 E 1022,3 0,0
14.11.2018 07:00:00 10,9 9,7 1 1 15 8 ESE 1022,2 -
14.11.2018 06:00:00 10,8 9,9 0 0 7 4 E 1022,4 0,0
14.11.2018 05:00:00 11,1 10,0 0 0 9 5 ESE 1022,5 0,0
14.11.2018 04:00:00 10,8 9,7 0 0 9 5 NW 1022,9 0,0
14.11.2018 03:00:00 11,3 9,9 1 1 9 5 ESE 1023,2 0,0
14.11.2018 02:00:00 10,6 9,6 0 0 2 1 W 1023,4 0,0
14.11.2018 01:00:00 10,5 9,6 0 0 3 1 N 1024,1 -
14.11.2018 00:00:00 10,4 9,4 0 0 3 2 SSE 1024,3 0,0
13.11.2018 23:00:00 10,6 10,0 1 0 3 2 SE 1024,7 0,0
13.11.2018 22:00:00 10,0 9,8 1 1 3 2 W 1025,0 0,0
13.11.2018 21:00:00 9,6 9,4 0 0 2 1 WSW 1025,0 0,0
13.11.2018 20:00:00 9,9 9,6 0 0 1 1 SE 1025,0 0,0
13.11.2018 19:00:00 10,6 10,0 0 0 9 5 SE 1025,0 -
13.11.2018 18:00:00 10,9 9,9 2 1 9 5 SE 1024,9 0,0
13.11.2018 17:00:00 11,3 9,9 0 0 3 2 SE 1025,1 0,0
13.11.2018 16:00:00 11,2 9,7 1 1 5 3 SE 1025,1 0,0
13.11.2018 15:00:00 11,4 9,8 1 0 8 4 NE 1025,0 0,0
13.11.2018 14:00:00 10,7 9,4 3 1 10 5 E 1025,4 0,0
13.11.2018 13:00:00 10,9 9,8 3 2 8 4 ESE 1025,8 -
13.11.2018 12:00:00 10,4 9,4 1 0 5 3 NE 1026,7 0,0
13.11.2018 11:00:00 9,8 9,6 1 1 7 4 N 1027,1 0,0
13.11.2018 10:00:00 9,3 9,2 0 0 1 0 N 1027,1 0,0
13.11.2018 09:00:00 9,0 8,8 0 0 3 1 NE 1026,5 0,0
13.11.2018 08:00:00 8,8 8,7 1 0 5 3 W 1026,0 0,0
13.11.2018 07:00:00 8,9 8,8 1 1 8 4 WNW 1025,4 -
13.11.2018 06:00:00 8,8 8,7 0 0 5 3 NNE 1025,0 0,0
13.11.2018 05:00:00 9,0 8,8 0 0 3 2 NW 1024,3 0,0
13.11.2018 04:00:00 9,1 8,9 0 0 6 3 W 1024,1 0,1
13.11.2018 03:00:00 9,2 9,0 1 0 4 2 N 1024,0 0,0
13.11.2018 02:00:00 9,4 9,3 1 0 6 3 W 1023,8 0,3
13.11.2018 01:00:00 9,4 9,3 4 2 7 4 W 1023,2 -
13.11.2018 00:00:00 9,4 9,3 0 0 5 3 W 1022,6 0,0
12.11.2018 23:00:00 9,4 9,3 1 1 8 5 W 1022,0 0,2
12.11.2018 22:00:00 9,3 9,2 1 1 10 5 WSW 1021,2 0,6
12.11.2018 21:00:00 9,4 9,3 5 3 15 8 W 1020,2 2,0
12.11.2018 20:00:00 9,4 9,3 4 2 10 6 WNW 1019,3 0,1
12.11.2018 19:00:00 9,7 9,6 3 2 6 4 W 1018,2 -
12.11.2018 18:00:00 9,6 9,4 1 1 10 5 NNE 1017,5 0,0
12.11.2018 17:00:00 9,9 9,8 2 1 7 4 NNE 1016,4 0,1
12.11.2018 16:00:00 10,4 10,3 1 0 4 2 E 1015,9 0,4
12.11.2018 15:00:00 10,6 10,4 0 0 7 4 N 1015,7 0,0
12.11.2018 14:00:00 10,4 10,3 1 0 8 5 N 1015,8 0,0
12.11.2018 13:00:00 10,5 10,3 0 0 2 1 E 1015,9 -
12.11.2018 12:00:00 10,4 10,3 3 1 10 5 WNW 1016,2 0,2
12.11.2018 11:00:00 9,8 9,7 3 2 14 8 W 1015,9 0,8
12.11.2018 10:00:00 9,7 9,6 8 4 19 10 W 1015,4 0,7
12.11.2018 09:00:00 10,1 9,9 7 4 27 15 W 1014,3 0,9
12.11.2018 08:00:00 11,0 10,6 4 2 19 10 W 1012,7 0,0
12.11.2018 07:00:00 11,6 10,9 3 1 17 9 SW 1012,0 -
12.11.2018 06:00:00 12,4 9,9 1 1 18 10 S 1010,8 0,1
12.11.2018 05:00:00 13,0 9,8 3 2 20 11 SSE 1009,8 0,0
12.11.2018 04:00:00 13,1 9,3 3 1 10 6 SSW 1009,1 0,0
12.11.2018 03:00:00 14,3 8,9 1 1 22 12 SE 1008,3 0,0
12.11.2018 02:00:00 14,8 8,8 6 4 22 12 E 1007,8 0,0
12.11.2018 01:00:00 14,9 8,7 6 3 21 12 ESE 1007,5 -
12.11.2018 00:00:00 15,0 8,7 7 4 22 12 ESE 1007,1 0,0
11.11.2018 23:00:00 14,6 8,8 4 2 21 12 ESE 1007,5 0,0
11.11.2018 22:00:00 14,8 8,8 4 2 23 12 E 1007,9 0,0
11.11.2018 21:00:00 14,3 8,3 5 3 18 10 SE 1007,5 0,1
11.11.2018 20:00:00 13,8 9,3 6 3 14 8 E 1007,7 0,0
11.11.2018 19:00:00 13,2 10,8 0 0 18 10 WSW 1007,9 -
11.11.2018 18:00:00 14,7 10,2 2 1 22 12 SE 1007,6 0,0
11.11.2018 17:00:00 15,3 9,2 3 1 21 12 SE 1008,1 0,0
11.11.2018 16:00:00 15,4 8,8 7 4 27 15 SE 1008,0 0,0
11.11.2018 15:00:00 15,4 8,8 9 5 28 15 ESE 1008,1 0,0
11.11.2018 14:00:00 15,6 8,5 10 6 27 15 SE 1008,2 0,0
11.11.2018 13:00:00 15,0 8,5 10 5 40 21 SE 1009,2 -
11.11.2018 12:00:00 14,8 8,3 11 6 32 17 SE 1009,3 0,0
11.11.2018 11:00:00 15,4 8,7 6 3 38 20 SE 1010,0 0,0
11.11.2018 10:00:00 15,4 5,6 6 4 31 17 S 1009,8 0,0
11.11.2018 09:00:00 14,6 5,1 5 3 27 15 SSE 1009,3 0,0
11.11.2018 08:00:00 14,7 4,6 8 4 48 26 SSE 1008,6 0,0
11.11.2018 07:00:00 14,8 4,5 5 3 31 17 SW 1007,7 -
11.11.2018 06:00:00 13,7 4,3 3 2 38 20 SSE 1007,7 0,0
11.11.2018 05:00:00 13,9 4,1 3 2 30 16 S 1008,2 0,0
11.11.2018 04:00:00 12,9 4,6 2 1 19 11 SSE 1008,8 0,0
11.11.2018 03:00:00 13,7 4,8 6 3 49 26 SSW 1009,5 0,0
11.11.2018 02:00:00 13,8 5,0 7 4 50 27 SSW 1008,6 0,0
11.11.2018 01:00:00 13,8 5,6 4 2 31 17 WNW 1008,6 -
11.11.2018 00:00:00 13,8 5,6 4 2 32 18 SSW 1008,5 0,0
10.11.2018 23:00:00 14,0 5,6 4 2 29 16 SSW 1008,5 0,0
10.11.2018 22:00:00 14,2 5,6 3 1 37 20 S 1008,0 0,0
10.11.2018 21:00:00 14,7 5,9 5 3 32 18 SW 1007,6 0,0
10.11.2018 20:00:00 15,0 6,5 11 6 41 22 WNW 1007,0 0,0
10.11.2018 19:00:00 15,2 7,3 7 4 31 17 W 1005,8 -
10.11.2018 18:00:00 15,2 7,0 2 1 41 22 WSW 1005,7 0,0
10.11.2018 17:00:00 15,6 6,8 1 1 39 21 W 1005,3 0,0
10.11.2018 16:00:00 15,9 7,1 4 2 31 17 SSW 1005,2 0,0
10.11.2018 15:00:00 15,7 7,0 5 3 29 15 S 1005,0 0,0
10.11.2018 14:00:00 16,1 7,0 6 3 41 22 S 1005,1 0,0
10.11.2018 13:00:00 16,2 7,7 6 4 45 24 S 1005,2 -
10.11.2018 12:00:00 14,7 9,3 2 1 36 20 W 1006,9 0,0
10.11.2018 11:00:00 15,1 8,1 3 1 46 25 WNW 1006,6 0,0
10.11.2018 10:00:00 14,8 8,3 8 4 68 37 S 1006,7 0,1
10.11.2018 09:00:00 14,2 7,7 3 2 27 15 S 1006,0 0,0
10.11.2018 08:00:00 12,9 6,2 7 4 29 15 SE 1006,1 0,0
10.11.2018 07:00:00 15,0 6,8 8 4 53 29 S 1005,9 -
10.11.2018 06:00:00 14,6 6,7 5 3 42 23 SSW 1006,2 0,0
10.11.2018 05:00:00 13,9 7,0 7 4 45 25 SSE 1006,5 0,0

tt = temperature
td = dewpoint
ff = wind speed
fx = gusts
dd = wind direction
ppp = reduced air pressure
rr = precipitation

Next stations